This is the latest recevied weather packets stored in our database for station/object VE3GIF. If no packets are shown the sender has not sent any weather packets the latest 10 day(s).
| Time | Temp. | Humidity | Pressure | Rain* | Wind** | Luminosity | Snow |
|---|---|---|---|---|---|---|---|
| 1778101106 | 7.22° C | 69% | 1010 hPa | 0 mm | - | - | - |
| 1778100805 | 7.22° C | 69% | 1010 hPa | 0 mm | - | - | - |
| 1778100205 | 7.22° C | 72% | 1010 hPa | 0 mm | - | - | - |
| 1778096301 | 6.11° C | 83% | 1010.3 hPa | 0 mm | - | - | - |
| 1778095100 | 5.56° C | 86% | 1010.4 hPa | 0 mm | - | - | - |
| 1778087292 | 6.67° C | 91% | 1009.9 hPa | 0 mm | - | - | - |
| 1778086992 | 6.67° C | 91% | 1009.9 hPa | 0 mm | - | - | - |
| 1778086392 | 6.11° C | 91% | 1009.8 hPa | 0 mm | - | - | - |
| 1778084590 | 6.11° C | 91% | 1010 hPa | 0 mm | - | - | - |
| 1778082188 | 6.11° C | 91% | 1009.7 hPa | 0 mm | - | - | - |
| 1778081887 | 6.11° C | 91% | 1009.6 hPa | 0 mm | - | - | - |
| 1778081587 | 6.11° C | 91% | 1009.5 hPa | 0 mm | - | - | - |
| 1778080086 | 6.11° C | 91% | 1009.1 hPa | 0 mm | - | - | - |
| 1778079485 | 5.56° C | 91% | 1009.3 hPa | 0 mm | - | - | - |
| 1778078284 | 5.56° C | 91% | 1009.2 hPa | 0 mm | - | - | - |
| 1778077984 | 5.56° C | 91% | 1009.3 hPa | 0 mm | - | - | - |
| 1778077683 | 5.56° C | 91% | 1009.2 hPa | 0 mm | - | - | - |
| 1778077383 | 5.56° C | 91% | 1009.2 hPa | 0 mm | - | - | - |
| 1778077083 | 5.56° C | 91% | 1009.2 hPa | 0 mm | - | - | - |
| 1778076782 | 5.56° C | 91% | 1009.1 hPa | 0 mm | - | - | - |
| 1778076182 | 5.56° C | 91% | 1009.1 hPa | 0 mm | - | - | - |
| 1778075882 | 5.56° C | 91% | 1009.1 hPa | 0 mm | - | - | - |
| 1778075581 | 6.11° C | 91% | 1009.1 hPa | 0 mm | - | - | - |
| 1778075281 | 5.56° C | 91% | 1009.1 hPa | 0 mm | - | - | - |
| 1778074981 | 5.56° C | 91% | 1009.2 hPa | 0 mm | - | - | - |
* Rain latest hour (hover to see other rain measurements)
** Current wind speed in m/s (hover to see current wind gust speed)